sensor_id;sensor_type;location;lat;lon;timestamp;pressure;altitude;pressure_sealevel;temperature;humidity
21273;BME280;36726;52.328;10.552;2023-02-11T00:00:15;101996.97;;;5.37;90.63
21273;BME280;36726;52.328;10.552;2023-02-11T00:02:42;101991.06;;;5.41;91.62
21273;BME280;36726;52.328;10.552;2023-02-11T00:05:12;101999.22;;;5.45;91.28
21273;BME280;36726;52.328;10.552;2023-02-11T00:07:39;101995.03;;;5.49;91.26
21273;BME280;36726;52.328;10.552;2023-02-11T00:10:06;101990.84;;;5.52;91.33
21273;BME280;36726;52.328;10.552;2023-02-11T00:12:34;101980.53;;;5.55;91.86
21273;BME280;36726;52.328;10.552;2023-02-11T00:15:01;101976.34;;;5.59;91.79
21273;BME280;36726;52.328;10.552;2023-02-11T00:17:28;101983.38;;;5.60;91.43
21273;BME280;36726;52.328;10.552;2023-02-11T00:19:55;101978.31;;;5.63;91.45
21273;BME280;36726;52.328;10.552;2023-02-11T00:22:21;101974.88;;;5.64;92.07
21273;BME280;36726;52.328;10.552;2023-02-11T00:24:48;101984.63;;;5.66;91.95
21273;BME280;36726;52.328;10.552;2023-02-11T00:27:15;101983.88;;;5.69;91.80
21273;BME280;36726;52.328;10.552;2023-02-11T00:29:42;101977.75;;;5.68;91.54
21273;BME280;36726;52.328;10.552;2023-02-11T00:32:09;101962.16;;;5.71;91.83
21273;BME280;36726;52.328;10.552;2023-02-11T00:34:36;101963.06;;;5.72;91.89
21273;BME280;36726;52.328;10.552;2023-02-11T00:37:04;101956.19;;;5.74;92.45
21273;BME280;36726;52.328;10.552;2023-02-11T00:39:32;101971.19;;;5.76;92.15
21273;BME280;36726;52.328;10.552;2023-02-11T00:41:59;101969.53;;;5.78;92.27
21273;BME280;36726;52.328;10.552;2023-02-11T00:44:25;101979.31;;;5.81;92.69
21273;BME280;36726;52.328;10.552;2023-02-11T00:46:52;101984.66;;;5.82;92.57
21273;BME280;36726;52.328;10.552;2023-02-11T00:49:19;101991.84;;;5.85;92.63
21273;BME280;36726;52.328;10.552;2023-02-11T00:51:47;101990.16;;;5.87;92.85
21273;BME280;36726;52.328;10.552;2023-02-11T00:54:13;102006.84;;;5.87;93.15
21273;BME280;36726;52.328;10.552;2023-02-11T00:56:40;101998.22;;;5.90;93.11
21273;BME280;36726;52.328;10.552;2023-02-11T00:59:06;102004.38;;;5.90;92.66
21273;BME280;36726;52.328;10.552;2023-02-11T01:01:33;102009.72;;;5.92;92.74
21273;BME280;36726;52.328;10.552;2023-02-11T01:04:00;102017.69;;;5.93;92.86
21273;BME280;36726;52.328;10.552;2023-02-11T01:06:26;102015.06;;;5.93;93.23
21273;BME280;36726;52.328;10.552;2023-02-11T01:08:53;102009.88;;;5.95;93.38
21273;BME280;36726;52.328;10.552;2023-02-11T01:11:20;102000.22;;;5.94;93.63
21273;BME280;36726;52.328;10.552;2023-02-11T01:13:48;101983.63;;;5.95;93.60
21273;BME280;36726;52.328;10.552;2023-02-11T01:16:15;101988.78;;;5.93;94.00
21273;BME280;36726;52.328;10.552;2023-02-11T01:18:43;101987.97;;;5.94;93.62
21273;BME280;36726;52.328;10.552;2023-02-11T01:21:10;101971.31;;;5.94;93.93
21273;BME280;36726;52.328;10.552;2023-02-11T01:23:37;101960.81;;;5.94;93.90
21273;BME280;36726;52.328;10.552;2023-02-11T01:26:04;101973.94;;;5.94;93.97
21273;BME280;36726;52.328;10.552;2023-02-11T01:28:30;101976.66;;;5.95;94.46
21273;BME280;36726;52.328;10.552;2023-02-11T01:30:59;101979.28;;;5.95;94.53
21273;BME280;36726;52.328;10.552;2023-02-11T01:33:26;101997.75;;;5.97;94.81
21273;BME280;36726;52.328;10.552;2023-02-11T01:35:52;101995.13;;;5.97;94.81
21273;BME280;36726;52.328;10.552;2023-02-11T01:38:22;101984.69;;;5.98;94.52
21273;BME280;36726;52.328;10.552;2023-02-11T01:40:54;101975.97;;;5.99;94.73
21273;BME280;36726;52.328;10.552;2023-02-11T01:43:22;101982.97;;;5.99;94.79
21273;BME280;36726;52.328;10.552;2023-02-11T01:45:55;101990.00;;;6.00;95.09
21273;BME280;36726;52.328;10.552;2023-02-11T01:48:34;101981.34;;;6.01;95.22
21273;BME280;36726;52.328;10.552;2023-02-11T01:51:15;101969.06;;;6.01;95.43
21273;BME280;36726;52.328;10.552;2023-02-11T01:53:44;101970.00;;;6.02;96.08
21273;BME280;36726;52.328;10.552;2023-02-11T01:56:34;101963.81;;;6.01;96.18
21273;BME280;36726;52.328;10.552;2023-02-11T01:59:29;101968.28;;;6.02;96.58
21273;BME280;36726;52.328;10.552;2023-02-11T02:02:00;101963.94;;;6.03;96.54
21273;BME280;36726;52.328;10.552;2023-02-11T02:04:33;101970.91;;;6.02;97.43
21273;BME280;36726;52.328;10.552;2023-02-11T02:07:08;101960.41;;;6.02;97.17
21273;BME280;36726;52.328;10.552;2023-02-11T02:09:45;101944.63;;;6.02;97.44
21273;BME280;36726;52.328;10.552;2023-02-11T02:12:14;101938.47;;;6.02;97.63
21273;BME280;36726;52.328;10.552;2023-02-11T02:14:41;101933.22;;;6.02;98.32
21273;BME280;36726;52.328;10.552;2023-02-11T02:17:32;101930.53;;;6.00;99.13
21273;BME280;36726;52.328;10.552;2023-02-11T02:28:54;101923.38;;;5.98;100.00
21273;BME280;36726;52.328;10.552;2023-02-11T02:31:50;101934.72;;;5.97;100.00
21273;BME280;36726;52.328;10.552;2023-02-11T02:34:29;101924.28;;;5.98;100.00
21273;BME280;36726;52.328;10.552;2023-02-11T02:37:08;101926.00;;;5.98;100.00
21273;BME280;36726;52.328;10.552;2023-02-11T02:39:36;101926.00;;;5.98;100.00
21273;BME280;36726;52.328;10.552;2023-02-11T02:42:03;101924.28;;;5.98;100.00
21273;BME280;36726;52.328;10.552;2023-02-11T02:44:30;101920.75;;;5.98;100.00
21273;BME280;36726;52.328;10.552;2023-02-11T02:46:57;101911.16;;;5.98;100.00
21273;BME280;36726;52.328;10.552;2023-02-11T02:49:24;101912.94;;;5.99;100.00
21273;BME280;36726;52.328;10.552;2023-02-11T02:52:29;101919.09;;;6.00;100.00
21273;BME280;36726;52.328;10.552;2023-02-11T02:58:07;101902.34;;;5.98;100.00
21273;BME280;36726;52.328;10.552;2023-02-11T03:00:45;101897.19;;;5.99;100.00
21273;BME280;36726;52.328;10.552;2023-02-11T03:03:33;101905.97;;;6.00;100.00
21273;BME280;36726;52.328;10.552;2023-02-11T03:06:07;101908.59;;;6.00;100.00
21273;BME280;36726;52.328;10.552;2023-02-11T03:08:49;101907.78;;;6.01;100.00
21273;BME280;36726;52.328;10.552;2023-02-11T03:11:19;101906.88;;;6.00;100.00
21273;BME280;36726;52.328;10.552;2023-02-11T03:13:48;101901.63;;;6.00;100.00
21273;BME280;36726;52.328;10.552;2023-02-11T03:16:23;101904.25;;;6.00;100.00
21273;BME280;36726;52.328;10.552;2023-02-11T03:19:14;101903.53;;;6.03;100.00
21273;BME280;36726;52.328;10.552;2023-02-11T03:21:45;101905.31;;;6.04;100.00
21273;BME280;36726;52.328;10.552;2023-02-11T03:24:37;101912.28;;;6.03;100.00
21273;BME280;36726;52.328;10.552;2023-02-11T03:30:25;101900.22;;;6.07;100.00
21273;BME280;36726;52.328;10.552;2023-02-11T03:32:56;101885.34;;;6.07;100.00
21273;BME280;36726;52.328;10.552;2023-02-11T03:35:38;101891.59;;;6.09;100.00
21273;BME280;36726;52.328;10.552;2023-02-11T03:38:12;101886.28;;;6.08;100.00
21273;BME280;36726;52.328;10.552;2023-02-11T03:40:42;101888.97;;;6.09;100.00
21273;BME280;36726;52.328;10.552;2023-02-11T03:43:17;101879.38;;;6.10;100.00
21273;BME280;36726;52.328;10.552;2023-02-11T03:45:48;101891.66;;;6.11;100.00
21273;BME280;36726;52.328;10.552;2023-02-11T03:48:41;101889.94;;;6.11;100.00
21273;BME280;36726;52.328;10.552;2023-02-11T03:51:08;101895.22;;;6.11;100.00
21273;BME280;36726;52.328;10.552;2023-02-11T03:53:37;101896.13;;;6.12;100.00
21273;BME280;36726;52.328;10.552;2023-02-11T03:56:08;101909.25;;;6.12;100.00
21273;BME280;36726;52.328;10.552;2023-02-11T03:58:36;101899.63;;;6.12;100.00
21273;BME280;36726;52.328;10.552;2023-02-11T04:01:03;101897.91;;;6.13;100.00
21273;BME280;36726;52.328;10.552;2023-02-11T04:03:30;101892.59;;;6.11;100.00
21273;BME280;36726;52.328;10.552;2023-02-11T04:05:58;101895.22;;;6.11;100.00
21273;BME280;36726;52.328;10.552;2023-02-11T04:08:24;101897.00;;;6.12;100.00
21273;BME280;36726;52.328;10.552;2023-02-11T04:10:51;101900.53;;;6.13;100.00
21273;BME280;36726;52.328;10.552;2023-02-11T04:13:17;101891.75;;;6.12;100.00
21273;BME280;36726;52.328;10.552;2023-02-11T04:15:44;101901.38;;;6.12;100.00
21273;BME280;36726;52.328;10.552;2023-02-11T04:18:14;101904.00;;;6.12;100.00
21273;BME280;36726;52.328;10.552;2023-02-11T04:20:41;101906.69;;;6.13;100.00
21273;BME280;36726;52.328;10.552;2023-02-11T04:23:08;101909.25;;;6.12;100.00
21273;BME280;36726;52.328;10.552;2023-02-11T04:25:35;101911.03;;;6.13;100.00
21273;BME280;36726;52.328;10.552;2023-02-11T04:28:02;101913.66;;;6.13;100.00
21273;BME280;36726;52.328;10.552;2023-02-11T04:30:29;101906.63;;;6.12;100.00
21273;BME280;36726;52.328;10.552;2023-02-11T04:32:57;101922.38;;;6.12;100.00
21273;BME280;36726;52.328;10.552;2023-02-11T04:35:23;101912.75;;;6.12;100.00
21273;BME280;36726;52.328;10.552;2023-02-11T04:37:50;101931.16;;;6.12;100.00
21273;BME280;36726;52.328;10.552;2023-02-11T04:40:16;101920.56;;;6.11;100.00
21273;BME280;36726;52.328;10.552;2023-02-11T04:42:43;101917.94;;;6.11;100.00
21273;BME280;36726;52.328;10.552;2023-02-11T04:45:09;101921.28;;;6.08;100.00
21273;BME280;36726;52.328;10.552;2023-02-11T04:47:36;101919.59;;;6.09;100.00
21273;BME280;36726;52.328;10.552;2023-02-11T04:50:04;101919.50;;;6.07;100.00
21273;BME280;36726;52.328;10.552;2023-02-11T04:52:30;101911.56;;;6.06;100.00
21273;BME280;36726;52.328;10.552;2023-02-11T04:54:57;101910.63;;;6.05;100.00
21273;BME280;36726;52.328;10.552;2023-02-11T04:57:23;101908.84;;;6.04;100.00
21273;BME280;36726;52.328;10.552;2023-02-11T04:59:49;101897.44;;;6.04;100.00
21273;BME280;36726;52.328;10.552;2023-02-11T05:02:16;101904.41;;;6.03;100.00
21273;BME280;36726;52.328;10.552;2023-02-11T05:04:43;101896.31;;;5.99;100.00
21273;BME280;36726;52.328;10.552;2023-02-11T05:07:10;101889.22;;;5.98;100.00
21273;BME280;36726;52.328;10.552;2023-02-11T05:09:36;101886.53;;;5.96;100.00
21273;BME280;36726;52.328;10.552;2023-02-11T05:12:03;101892.53;;;5.94;100.00
21273;BME280;36726;52.328;10.552;2023-02-11T05:14:29;101889.72;;;5.91;100.00
21273;BME280;36726;52.328;10.552;2023-02-11T05:16:56;101880.94;;;5.90;100.00
21273;BME280;36726;52.328;10.552;2023-02-11T05:19:22;101881.78;;;5.89;100.00
21273;BME280;36726;52.328;10.552;2023-02-11T05:21:49;101879.16;;;5.89;100.00
21273;BME280;36726;52.328;10.552;2023-02-11T05:24:29;101884.47;;;5.91;100.00
21273;BME280;36726;52.328;10.552;2023-02-11T05:26:56;101881.06;;;5.92;100.00
21273;BME280;36726;52.328;10.552;2023-02-11T05:29:23;101882.84;;;5.93;100.00
21273;BME280;36726;52.328;10.552;2023-02-11T05:31:49;101886.44;;;5.95;100.00
21273;BME280;36726;52.328;10.552;2023-02-11T05:34:16;101883.00;;;5.96;100.00
21273;BME280;36726;52.328;10.552;2023-02-11T05:36:42;101883.00;;;5.96;100.00
21273;BME280;36726;52.328;10.552;2023-02-11T05:39:09;101883.16;;;5.99;100.00
21273;BME280;36726;52.328;10.552;2023-02-11T05:41:35;101878.78;;;5.99;100.00
21273;BME280;36726;52.328;10.552;2023-02-11T05:44:03;101867.47;;;6.00;100.00
21273;BME280;36726;52.328;10.552;2023-02-11T05:46:30;101878.06;;;6.02;100.00
21273;BME280;36726;52.328;10.552;2023-02-11T05:48:56;101872.81;;;6.02;100.00
21273;BME280;36726;52.328;10.552;2023-02-11T05:51:23;101863.28;;;6.04;100.00
21273;BME280;36726;52.328;10.552;2023-02-11T05:53:50;101864.28;;;6.06;100.00
21273;BME280;36726;52.328;10.552;2023-02-11T05:56:17;101866.00;;;6.05;100.00
21273;BME280;36726;52.328;10.552;2023-02-11T05:58:43;101867.81;;;6.06;100.00
21273;BME280;36726;52.328;10.552;2023-02-11T06:01:10;101867.81;;;6.06;100.00
21273;BME280;36726;52.328;10.552;2023-02-11T06:03:36;101876.56;;;6.07;100.00
21273;BME280;36726;52.328;10.552;2023-02-11T06:06:03;101880.09;;;6.07;100.00
21273;BME280;36726;52.328;10.552;2023-02-11T06:08:30;101876.56;;;6.07;100.00
21273;BME280;36726;52.328;10.552;2023-02-11T06:10:56;101879.25;;;6.08;100.00
21273;BME280;36726;52.328;10.552;2023-02-11T06:13:23;101870.59;;;6.09;100.00
21273;BME280;36726;52.328;10.552;2023-02-11T06:15:59;101864.50;;;6.10;100.00
21273;BME280;36726;52.328;10.552;2023-02-11T06:18:26;101864.59;;;6.12;100.00
21273;BME280;36726;52.328;10.552;2023-02-11T06:20:53;101857.66;;;6.14;100.00
21273;BME280;36726;52.328;10.552;2023-02-11T06:23:20;101862.13;;;6.15;100.00
21273;BME280;36726;52.328;10.552;2023-02-11T06:25:47;101863.03;;;6.15;100.00
21273;BME280;36726;52.328;10.552;2023-02-11T06:28:14;101853.47;;;6.17;100.00
21273;BME280;36726;52.328;10.552;2023-02-11T06:30:41;101857.84;;;6.17;100.00
21273;BME280;36726;52.328;10.552;2023-02-11T06:33:08;101859.63;;;6.18;100.00
21273;BME280;36726;52.328;10.552;2023-02-11T06:35:37;101864.09;;;6.19;100.00
21273;BME280;36726;52.328;10.552;2023-02-11T06:38:04;101855.34;;;6.20;100.00
21273;BME280;36726;52.328;10.552;2023-02-11T06:40:30;101846.63;;;6.21;100.00
21273;BME280;36726;52.328;10.552;2023-02-11T06:42:57;101854.63;;;6.22;100.00
21273;BME280;36726;52.328;10.552;2023-02-11T06:45:23;101852.00;;;6.22;100.00
21273;BME280;36726;52.328;10.552;2023-02-11T06:47:50;101853.84;;;6.25;100.00
21273;BME280;36726;52.328;10.552;2023-02-11T06:50:16;101858.44;;;6.29;100.00
21273;BME280;36726;52.328;10.552;2023-02-11T06:52:43;101857.59;;;6.30;100.00
21273;BME280;36726;52.328;10.552;2023-02-11T06:55:10;101855.97;;;6.32;100.00
21273;BME280;36726;52.328;10.552;2023-02-11T06:57:37;101863.97;;;6.34;100.00
21273;BME280;36726;52.328;10.552;2023-02-11T07:00:04;101867.63;;;6.37;100.00
21273;BME280;36726;52.328;10.552;2023-02-11T07:02:31;101870.41;;;6.40;100.00
21273;BME280;36726;52.328;10.552;2023-02-11T07:04:59;101879.28;;;6.42;100.00
21273;BME280;36726;52.328;10.552;2023-02-11T07:07:26;101871.53;;;6.45;100.00
21273;BME280;36726;52.328;10.552;2023-02-11T07:09:53;101872.50;;;6.47;100.00
21273;BME280;36726;52.328;10.552;2023-02-11T07:12:19;101874.47;;;6.51;100.00
21273;BME280;36726;52.328;10.552;2023-02-11T07:14:46;101865.75;;;6.52;100.00
21273;BME280;36726;52.328;10.552;2023-02-11T07:17:12;101870.19;;;6.53;100.00
21273;BME280;36726;52.328;10.552;2023-02-11T07:19:38;101870.28;;;6.55;100.00
21273;BME280;36726;52.328;10.552;2023-02-11T07:22:05;101871.19;;;6.55;100.00
21273;BME280;36726;52.328;10.552;2023-02-11T07:24:32;101872.97;;;6.56;100.00
21273;BME280;36726;52.328;10.552;2023-02-11T07:26:58;101863.44;;;6.58;100.00
21273;BME280;36726;52.328;10.552;2023-02-11T07:29:25;101854.81;;;6.61;100.00
21273;BME280;36726;52.328;10.552;2023-02-11T07:31:52;101852.25;;;6.62;100.00
21273;BME280;36726;52.328;10.552;2023-02-11T07:34:19;101853.22;;;6.64;100.00
21273;BME280;36726;52.328;10.552;2023-02-11T07:36:45;101849.75;;;6.65;100.00
21273;BME280;36726;52.328;10.552;2023-02-11T07:39:14;101848.19;;;6.69;100.00
21273;BME280;36726;52.328;10.552;2023-02-11T07:41:41;101841.25;;;6.71;100.00
21273;BME280;36726;52.328;10.552;2023-02-11T07:44:08;101847.44;;;6.71;100.00
21273;BME280;36726;52.328;10.552;2023-02-11T07:46:35;101857.94;;;6.71;100.00
21273;BME280;36726;52.328;10.552;2023-02-11T07:49:01;101851.91;;;6.74;100.00
21273;BME280;36726;52.328;10.552;2023-02-11T07:51:29;101858.16;;;6.76;100.00
21273;BME280;36726;52.328;10.552;2023-02-11T07:53:57;101870.56;;;6.78;100.00
21273;BME280;36726;52.328;10.552;2023-02-11T07:56:25;101879.34;;;6.79;100.00
21273;BME280;36726;52.328;10.552;2023-02-11T07:58:53;101881.22;;;6.81;100.00
21273;BME280;36726;52.328;10.552;2023-02-11T08:01:22;101884.84;;;6.83;100.00
21273;BME280;36726;52.328;10.552;2023-02-11T08:03:51;101898.06;;;6.85;100.00
21273;BME280;36726;52.328;10.552;2023-02-11T08:06:19;101898.97;;;6.85;100.00
21273;BME280;36726;52.328;10.552;2023-02-11T08:08:46;101902.56;;;6.87;100.00
21273;BME280;36726;52.328;10.552;2023-02-11T08:11:24;101894.69;;;6.87;100.00
21273;BME280;36726;52.328;10.552;2023-02-11T08:13:52;101900.91;;;6.89;100.00
21273;BME280;36726;52.328;10.552;2023-02-11T08:16:24;101897.44;;;6.90;100.00
21273;BME280;36726;52.328;10.552;2023-02-11T08:18:52;101900.22;;;6.93;100.00
21273;BME280;36726;52.328;10.552;2023-02-11T08:21:20;101905.66;;;6.96;100.00
21273;BME280;36726;52.328;10.552;2023-02-11T08:23:47;101904.75;;;6.96;100.00
21273;BME280;36726;52.328;10.552;2023-02-11T08:26:20;101909.25;;;6.98;100.00
21273;BME280;36726;52.328;10.552;2023-02-11T08:28:47;101923.28;;;6.99;100.00
21273;BME280;36726;52.328;10.552;2023-02-11T08:31:20;101910.06;;;6.97;100.00
21273;BME280;36726;52.328;10.552;2023-02-11T08:33:47;101907.38;;;6.96;100.00
21273;BME280;36726;52.328;10.552;2023-02-11T08:36:22;101911.88;;;6.98;100.00
21273;BME280;36726;52.328;10.552;2023-02-11T08:38:50;101906.63;;;6.98;100.00
21273;BME280;36726;52.328;10.552;2023-02-11T08:41:17;101910.97;;;6.98;100.00
21273;BME280;36726;52.328;10.552;2023-02-11T08:43:44;101902.25;;;6.99;100.00
21273;BME280;36726;52.328;10.552;2023-02-11T08:46:14;101904.13;;;7.01;100.00
21273;BME280;36726;52.328;10.552;2023-02-11T08:48:41;101897.22;;;7.03;100.00
21273;BME280;36726;52.328;10.552;2023-02-11T08:51:12;101903.28;;;7.02;100.00
21273;BME280;36726;52.328;10.552;2023-02-11T08:53:39;101912.16;;;7.04;100.00
21273;BME280;36726;52.328;10.552;2023-02-11T08:56:05;101917.44;;;7.04;100.00
21273;BME280;36726;52.328;10.552;2023-02-11T08:58:32;101923.66;;;7.06;100.00
21273;BME280;36726;52.328;10.552;2023-02-11T09:01:00;101908.72;;;7.05;100.00
21273;BME280;36726;52.328;10.552;2023-02-11T09:03:30;101908.03;;;7.09;100.00
21273;BME280;36726;52.328;10.552;2023-02-11T09:05:56;101915.09;;;7.10;100.00
21273;BME280;36726;52.328;10.552;2023-02-11T09:08:24;101922.25;;;7.13;100.00
21273;BME280;36726;52.328;10.552;2023-02-11T09:10:51;101913.59;;;7.15;100.00
21273;BME280;36726;52.328;10.552;2023-02-11T09:13:18;101924.09;;;7.15;100.00
21273;BME280;36726;52.328;10.552;2023-02-11T09:15:45;101925.09;;;7.17;100.00
21273;BME280;36726;52.328;10.552;2023-02-11T09:18:12;101949.59;;;7.16;100.00
21273;BME280;36726;52.328;10.552;2023-02-11T09:20:39;101946.00;;;7.14;100.00
21273;BME280;36726;52.328;10.552;2023-02-11T09:23:05;101950.34;;;7.14;100.00
21273;BME280;36726;52.328;10.552;2023-02-11T09:25:32;101949.44;;;7.13;100.00
21273;BME280;36726;52.328;10.552;2023-02-11T09:27:59;101947.78;;;7.15;100.00
21273;BME280;36726;52.328;10.552;2023-02-11T09:30:26;101947.66;;;7.12;100.00
21273;BME280;36726;52.328;10.552;2023-02-11T09:32:52;101951.25;;;7.14;100.00
21273;BME280;36726;52.328;10.552;2023-02-11T09:35:19;101944.19;;;7.13;100.00
21273;BME280;36726;52.328;10.552;2023-02-11T09:37:45;101962.59;;;7.13;100.00
21273;BME280;36726;52.328;10.552;2023-02-11T09:40:13;101953.88;;;7.14;100.00
21273;BME280;36726;52.328;10.552;2023-02-11T09:42:47;101973.13;;;7.13;100.00
21273;BME280;36726;52.328;10.552;2023-02-11T09:45:18;101953.06;;;7.15;100.00
21273;BME280;36726;52.328;10.552;2023-02-11T09:50:25;101962.59;;;7.13;100.00
21273;BME280;36726;52.328;10.552;2023-02-11T09:53:01;101972.25;;;7.13;100.00
21273;BME280;36726;52.328;10.552;2023-02-11T09:55:32;101963.56;;;7.15;100.00
21273;BME280;36726;52.328;10.552;2023-02-11T09:58:09;101973.28;;;7.16;100.00
21273;BME280;36726;52.328;10.552;2023-02-11T10:00:43;101970.50;;;7.13;100.00
21273;BME280;36726;52.328;10.552;2023-02-11T10:05:49;101984.69;;;7.17;100.00
21273;BME280;36726;52.328;10.552;2023-02-11T10:13:50;101981.00;;;7.13;100.00
21273;BME280;36726;52.328;10.552;2023-02-11T10:16:58;101982.00;;;7.15;100.00
21273;BME280;36726;52.328;10.552;2023-02-11T10:22:28;101978.56;;;7.16;100.00
21273;BME280;36726;52.328;10.552;2023-02-11T10:24:57;101977.56;;;7.14;100.00
21273;BME280;36726;52.328;10.552;2023-02-11T10:27:30;101978.38;;;7.13;100.00
21273;BME280;36726;52.328;10.552;2023-02-11T10:30:30;101987.13;;;7.12;100.00
21273;BME280;36726;52.328;10.552;2023-02-11T10:35:42;101979.53;;;7.18;100.00
21273;BME280;36726;52.328;10.552;2023-02-11T10:38:11;101976.06;;;7.19;100.00
21273;BME280;36726;52.328;10.552;2023-02-11T10:40:38;101969.16;;;7.21;100.00
21273;BME280;36726;52.328;10.552;2023-02-11T10:43:08;101966.72;;;7.26;100.00
21273;BME280;36726;52.328;10.552;2023-02-11T10:45:43;101968.38;;;7.24;100.00
21273;BME280;36726;52.328;10.552;2023-02-11T10:53:40;101977.25;;;7.26;100.00
21273;BME280;36726;52.328;10.552;2023-02-11T10:56:11;101973.81;;;7.27;100.00
21273;BME280;36726;52.328;10.552;2023-02-11T10:58:46;101984.53;;;7.31;100.00
21273;BME280;36726;52.328;10.552;2023-02-11T11:01:19;101975.00;;;7.33;100.00
21273;BME280;36726;52.328;10.552;2023-02-11T11:03:51;101980.25;;;7.33;100.00
21273;BME280;36726;52.328;10.552;2023-02-11T11:06:29;101976.81;;;7.34;100.00
21273;BME280;36726;52.328;10.552;2023-02-11T11:08:57;101981.91;;;7.31;100.00
21273;BME280;36726;52.328;10.552;2023-02-11T11:11:25;101987.03;;;7.28;100.00
21273;BME280;36726;52.328;10.552;2023-02-11T11:16:27;101987.69;;;7.42;100.00
21273;BME280;36726;52.328;10.552;2023-02-11T11:21:43;101996.34;;;7.40;100.00
21273;BME280;36726;52.328;10.552;2023-02-11T11:24:22;101999.91;;;7.40;100.00
21273;BME280;36726;52.328;10.552;2023-02-11T11:26:56;101979.94;;;7.45;100.00
21273;BME280;36726;52.328;10.552;2023-02-11T11:29:36;101982.66;;;7.47;100.00
21273;BME280;36726;52.328;10.552;2023-02-11T11:32:10;101980.09;;;7.48;100.00
21273;BME280;36726;52.328;10.552;2023-02-11T11:34:43;101986.47;;;7.53;100.00
21273;BME280;36726;52.328;10.552;2023-02-11T11:37:26;101990.06;;;7.55;100.00
21273;BME280;36726;52.328;10.552;2023-02-11T11:40:02;101995.28;;;7.54;100.00
21273;BME280;36726;52.328;10.552;2023-02-11T11:42:35;101998.88;;;7.56;100.00
21273;BME280;36726;52.328;10.552;2023-02-11T11:47:47;101974.56;;;7.61;100.00
21273;BME280;36726;52.328;10.552;2023-02-11T11:50:31;101981.88;;;7.67;100.00
21273;BME280;36726;52.328;10.552;2023-02-11T11:55:38;101984.63;;;7.70;100.00
21273;BME280;36726;52.328;10.552;2023-02-11T11:58:19;101991.84;;;7.74;100.00
21273;BME280;36726;52.328;10.552;2023-02-11T12:06:23;102002.25;;;7.90;100.00
21273;BME280;36726;52.328;10.552;2023-02-11T12:11:33;102007.28;;;8.03;100.00
21273;BME280;36726;52.328;10.552;2023-02-11T12:17:40;102002.34;;;8.10;100.00
21273;BME280;36726;52.328;10.552;2023-02-11T12:26:15;102021.44;;;8.24;100.00
21273;BME280;36726;52.328;10.552;2023-02-11T12:31:55;102039.34;;;8.31;100.00
21273;BME280;36726;52.328;10.552;2023-02-11T12:34:55;102022.84;;;8.35;100.00
21273;BME280;36726;52.328;10.552;2023-02-11T12:40:42;102031.03;;;8.41;100.00
21273;BME280;36726;52.328;10.552;2023-02-11T12:46:09;102026.91;;;8.48;100.00
21273;BME280;36726;52.328;10.552;2023-02-11T12:54:03;102007.53;;;8.47;100.00
21273;BME280;36726;52.328;10.552;2023-02-11T12:56:39;102000.59;;;8.49;100.00
21273;BME280;36726;52.328;10.552;2023-02-11T12:59:14;102015.75;;;8.53;100.00
21273;BME280;36726;52.328;10.552;2023-02-11T13:01:43;102007.88;;;8.55;100.00
21273;BME280;36726;52.328;10.552;2023-02-11T13:04:24;102013.28;;;8.58;100.00
21273;BME280;36726;52.328;10.552;2023-02-11T13:06:58;102021.41;;;8.62;100.00
21273;BME280;36726;52.328;10.552;2023-02-11T13:09:35;102017.09;;;8.64;100.00
21273;BME280;36726;52.328;10.552;2023-02-11T13:12:05;102012.00;;;8.69;100.00
21273;BME280;36726;52.328;10.552;2023-02-11T13:14:53;102018.47;;;8.75;100.00
21273;BME280;36726;52.328;10.552;2023-02-11T13:17:32;102010.34;;;8.71;100.00
21273;BME280;36726;52.328;10.552;2023-02-11T13:20:14;102021.81;;;8.71;100.00
21273;BME280;36726;52.328;10.552;2023-02-11T13:22:51;102027.03;;;8.70;100.00
21273;BME280;36726;52.328;10.552;2023-02-11T13:25:38;102045.69;;;8.74;100.00
21273;BME280;36726;52.328;10.552;2023-02-11T13:28:31;102014.00;;;8.74;100.00
21273;BME280;36726;52.328;10.552;2023-02-11T13:31:02;102015.63;;;8.71;100.00
21273;BME280;36726;52.328;10.552;2023-02-11T13:38:31;102017.09;;;8.64;100.00
21273;BME280;36726;52.328;10.552;2023-02-11T13:41:15;102025.78;;;8.62;100.00
21273;BME280;36726;52.328;10.552;2023-02-11T13:43:43;102024.69;;;8.57;100.00
21273;BME280;36726;52.328;10.552;2023-02-11T13:46:11;102015.75;;;8.53;100.00
21273;BME280;36726;52.328;10.552;2023-02-11T13:48:50;102024.47;;;8.52;100.00
21273;BME280;36726;52.328;10.552;2023-02-11T13:51:34;102030.47;;;8.48;100.00
21273;BME280;36726;52.328;10.552;2023-02-11T13:54:04;102034.88;;;8.49;100.00
21273;BME280;36726;52.328;10.552;2023-02-11T13:56:36;102033.28;;;8.53;100.00
21273;BME280;36726;52.328;10.552;2023-02-11T14:04:36;102021.13;;;8.56;100.00
21273;BME280;36726;52.328;10.552;2023-02-11T14:07:29;102010.59;;;8.56;100.00
21273;BME280;36726;52.328;10.552;2023-02-11T14:13:28;102033.63;;;8.60;100.00
21273;BME280;36726;52.328;10.552;2023-02-11T14:16:10;102049.44;;;8.60;100.00
21273;BME280;36726;52.328;10.552;2023-02-11T14:18:57;102060.84;;;8.59;100.00
21273;BME280;36726;52.328;10.552;2023-02-11T14:26:51;102056.44;;;8.60;100.00
21273;BME280;36726;52.328;10.552;2023-02-11T14:34:58;102058.00;;;8.55;100.00
21273;BME280;36726;52.328;10.552;2023-02-11T14:43:11;102068.34;;;8.50;100.00
21273;BME280;36726;52.328;10.552;2023-02-11T14:45:39;102069.22;;;8.51;100.00
21273;BME280;36726;52.328;10.552;2023-02-11T14:48:17;102070.03;;;8.48;100.00
21273;BME280;36726;52.328;10.552;2023-02-11T14:50:50;102073.53;;;8.49;100.00